sensor_id;sensor_type;location;lat;lon;timestamp;temperature;humidity
820;DHT22;392;48.838;2.322;2023-07-29T00:00:23;21.50;79.50
820;DHT22;392;48.838;2.322;2023-07-29T00:02:50;21.40;79.90
820;DHT22;392;48.838;2.322;2023-07-29T00:05:18;21.40;77.70
820;DHT22;392;48.838;2.322;2023-07-29T00:07:45;21.40;76.60
820;DHT22;392;48.838;2.322;2023-07-29T00:10:12;21.50;75.70
820;DHT22;392;48.838;2.322;2023-07-29T00:12:39;21.50;74.60
820;DHT22;392;48.838;2.322;2023-07-29T00:15:07;21.50;73.60
820;DHT22;392;48.838;2.322;2023-07-29T00:17:37;21.50;73.60
820;DHT22;392;48.838;2.322;2023-07-29T00:20:05;21.50;72.60
820;DHT22;392;48.838;2.322;2023-07-29T00:22:34;21.50;72.10
820;DHT22;392;48.838;2.322;2023-07-29T00:25:01;21.60;72.00
820;DHT22;392;48.838;2.322;2023-07-29T00:27:28;21.60;70.50
820;DHT22;392;48.838;2.322;2023-07-29T00:29:56;21.50;69.70
820;DHT22;392;48.838;2.322;2023-07-29T00:32:23;21.50;69.30
820;DHT22;392;48.838;2.322;2023-07-29T00:34:52;21.50;69.80
820;DHT22;392;48.838;2.322;2023-07-29T00:37:19;21.50;70.30
820;DHT22;392;48.838;2.322;2023-07-29T00:39:47;21.50;70.20
820;DHT22;392;48.838;2.322;2023-07-29T00:42:14;21.50;68.90
820;DHT22;392;48.838;2.322;2023-07-29T00:44:41;21.40;69.60
820;DHT22;392;48.838;2.322;2023-07-29T00:47:08;21.40;68.90
820;DHT22;392;48.838;2.322;2023-07-29T00:49:36;21.40;68.90
820;DHT22;392;48.838;2.322;2023-07-29T00:52:06;21.40;68.80
820;DHT22;392;48.838;2.322;2023-07-29T00:54:33;21.40;67.50
820;DHT22;392;48.838;2.322;2023-07-29T00:57:03;21.40;66.80
820;DHT22;392;48.838;2.322;2023-07-29T00:59:31;21.30;66.60
820;DHT22;392;48.838;2.322;2023-07-29T01:01:59;21.30;66.10
820;DHT22;392;48.838;2.322;2023-07-29T01:04:27;21.30;66.70
820;DHT22;392;48.838;2.322;2023-07-29T01:07:03;21.30;67.10
820;DHT22;392;48.838;2.322;2023-07-29T01:09:47;21.20;66.80
820;DHT22;392;48.838;2.322;2023-07-29T01:12:21;21.20;66.60
820;DHT22;392;48.838;2.322;2023-07-29T01:14:59;21.10;67.10
820;DHT22;392;48.838;2.322;2023-07-29T01:17:33;21.00;66.90
820;DHT22;392;48.838;2.322;2023-07-29T01:20:07;21.00;68.20
820;DHT22;392;48.838;2.322;2023-07-29T01:22:37;21.00;67.70
820;DHT22;392;48.838;2.322;2023-07-29T01:25:07;20.90;67.00
820;DHT22;392;48.838;2.322;2023-07-29T01:27:35;20.80;68.40
820;DHT22;392;48.838;2.322;2023-07-29T01:30:03;20.70;67.90
820;DHT22;392;48.838;2.322;2023-07-29T01:32:36;20.80;68.30
820;DHT22;392;48.838;2.322;2023-07-29T01:35:13;20.80;68.30
820;DHT22;392;48.838;2.322;2023-07-29T01:37:47;20.70;67.80
820;DHT22;392;48.838;2.322;2023-07-29T01:40:18;20.70;69.10
820;DHT22;392;48.838;2.322;2023-07-29T01:42:46;20.70;68.60
820;DHT22;392;48.838;2.322;2023-07-29T01:45:13;20.70;68.20
820;DHT22;392;48.838;2.322;2023-07-29T01:47:40;20.70;67.40
820;DHT22;392;48.838;2.322;2023-07-29T01:50:08;20.70;66.10
820;DHT22;392;48.838;2.322;2023-07-29T01:52:36;20.60;68.10
820;DHT22;392;48.838;2.322;2023-07-29T01:55:04;20.50;68.00
820;DHT22;392;48.838;2.322;2023-07-29T01:57:33;20.60;69.10
820;DHT22;392;48.838;2.322;2023-07-29T02:00:01;20.50;68.00
820;DHT22;392;48.838;2.322;2023-07-29T02:02:40;20.40;69.30
820;DHT22;392;48.838;2.322;2023-07-29T02:05:08;20.50;70.30
820;DHT22;392;48.838;2.322;2023-07-29T02:07:35;20.50;70.50
820;DHT22;392;48.838;2.322;2023-07-29T02:10:03;20.50;70.40
820;DHT22;392;48.838;2.322;2023-07-29T02:12:32;20.40;69.80
820;DHT22;392;48.838;2.322;2023-07-29T02:15:00;20.40;70.80
820;DHT22;392;48.838;2.322;2023-07-29T02:17:28;20.40;70.40
820;DHT22;392;48.838;2.322;2023-07-29T02:19:55;20.40;70.10
820;DHT22;392;48.838;2.322;2023-07-29T02:22:23;20.40;70.20
820;DHT22;392;48.838;2.322;2023-07-29T02:24:50;20.30;70.00
820;DHT22;392;48.838;2.322;2023-07-29T02:27:17;20.30;69.60
820;DHT22;392;48.838;2.322;2023-07-29T02:29:46;20.20;71.30
820;DHT22;392;48.838;2.322;2023-07-29T02:32:13;20.20;70.60
820;DHT22;392;48.838;2.322;2023-07-29T02:34:41;20.30;70.70
820;DHT22;392;48.838;2.322;2023-07-29T02:37:08;20.30;70.50
820;DHT22;392;48.838;2.322;2023-07-29T02:39:35;20.20;70.10
820;DHT22;392;48.838;2.322;2023-07-29T02:42:03;20.10;72.00
820;DHT22;392;48.838;2.322;2023-07-29T02:44:31;20.10;72.30
820;DHT22;392;48.838;2.322;2023-07-29T02:46:59;20.10;72.30
820;DHT22;392;48.838;2.322;2023-07-29T02:49:27;20.10;71.90
820;DHT22;392;48.838;2.322;2023-07-29T02:51:54;20.10;72.30
820;DHT22;392;48.838;2.322;2023-07-29T02:54:21;20.00;72.30
820;DHT22;392;48.838;2.322;2023-07-29T02:56:50;20.00;72.70
820;DHT22;392;48.838;2.322;2023-07-29T02:59:17;20.00;73.20
820;DHT22;392;48.838;2.322;2023-07-29T03:01:45;19.90;72.90
820;DHT22;392;48.838;2.322;2023-07-29T03:04:14;19.90;74.60
820;DHT22;392;48.838;2.322;2023-07-29T03:06:41;19.80;74.80
820;DHT22;392;48.838;2.322;2023-07-29T03:09:08;19.80;74.90
820;DHT22;392;48.838;2.322;2023-07-29T03:11:36;19.90;74.50
820;DHT22;392;48.838;2.322;2023-07-29T03:14:03;19.80;73.80
820;DHT22;392;48.838;2.322;2023-07-29T03:16:31;19.80;75.50
820;DHT22;392;48.838;2.322;2023-07-29T03:19:00;19.70;76.20
820;DHT22;392;48.838;2.322;2023-07-29T03:21:28;19.80;75.90
820;DHT22;392;48.838;2.322;2023-07-29T03:23:56;19.70;74.80
820;DHT22;392;48.838;2.322;2023-07-29T03:26:23;19.70;75.30
820;DHT22;392;48.838;2.322;2023-07-29T03:28:51;19.70;76.20
820;DHT22;392;48.838;2.322;2023-07-29T03:31:18;19.70;76.00
820;DHT22;392;48.838;2.322;2023-07-29T03:33:46;19.60;75.10
820;DHT22;392;48.838;2.322;2023-07-29T03:36:13;19.60;77.00
820;DHT22;392;48.838;2.322;2023-07-29T03:38:42;19.60;76.60
820;DHT22;392;48.838;2.322;2023-07-29T03:41:10;19.60;77.30
820;DHT22;392;48.838;2.322;2023-07-29T03:43:38;19.60;75.60
820;DHT22;392;48.838;2.322;2023-07-29T03:46:05;19.60;77.30
820;DHT22;392;48.838;2.322;2023-07-29T03:48:33;19.60;76.30
820;DHT22;392;48.838;2.322;2023-07-29T03:51:00;19.50;76.60
820;DHT22;392;48.838;2.322;2023-07-29T03:53:28;19.50;76.20
820;DHT22;392;48.838;2.322;2023-07-29T03:55:56;19.40;78.00
820;DHT22;392;48.838;2.322;2023-07-29T03:58:24;19.40;78.70
820;DHT22;392;48.838;2.322;2023-07-29T04:00:51;19.40;78.00
820;DHT22;392;48.838;2.322;2023-07-29T04:03:18;19.40;77.40
820;DHT22;392;48.838;2.322;2023-07-29T04:05:47;19.40;79.10
820;DHT22;392;48.838;2.322;2023-07-29T04:08:14;19.40;78.90
820;DHT22;392;48.838;2.322;2023-07-29T04:10:41;19.40;78.20
820;DHT22;392;48.838;2.322;2023-07-29T04:13:10;19.50;76.70
820;DHT22;392;48.838;2.322;2023-07-29T04:15:37;19.40;77.60
820;DHT22;392;48.838;2.322;2023-07-29T04:18:05;19.30;78.80
820;DHT22;392;48.838;2.322;2023-07-29T04:20:32;19.40;78.10
820;DHT22;392;48.838;2.322;2023-07-29T04:23:00;19.30;77.40
820;DHT22;392;48.838;2.322;2023-07-29T04:25:28;19.30;79.60
820;DHT22;392;48.838;2.322;2023-07-29T04:27:55;19.20;79.20
820;DHT22;392;48.838;2.322;2023-07-29T04:30:25;19.30;79.20
820;DHT22;392;48.838;2.322;2023-07-29T04:32:52;19.30;78.20
820;DHT22;392;48.838;2.322;2023-07-29T04:35:19;19.20;78.40
820;DHT22;392;48.838;2.322;2023-07-29T04:37:47;19.20;79.10
820;DHT22;392;48.838;2.322;2023-07-29T04:40:14;19.20;78.40
820;DHT22;392;48.838;2.322;2023-07-29T04:42:42;19.20;78.30
820;DHT22;392;48.838;2.322;2023-07-29T04:45:10;19.30;77.20
820;DHT22;392;48.838;2.322;2023-07-29T04:47:39;19.20;78.00
820;DHT22;392;48.838;2.322;2023-07-29T04:50:07;19.20;78.10
820;DHT22;392;48.838;2.322;2023-07-29T04:52:36;19.20;78.30
820;DHT22;392;48.838;2.322;2023-07-29T04:55:04;19.20;76.80
820;DHT22;392;48.838;2.322;2023-07-29T04:57:32;19.20;78.40
820;DHT22;392;48.838;2.322;2023-07-29T05:00:00;19.20;77.60
820;DHT22;392;48.838;2.322;2023-07-29T05:04:58;19.20;75.60
820;DHT22;392;48.838;2.322;2023-07-29T05:07:25;19.20;77.50
820;DHT22;392;48.838;2.322;2023-07-29T05:09:52;19.30;78.20
820;DHT22;392;48.838;2.322;2023-07-29T05:12:19;19.40;77.60
820;DHT22;392;48.838;2.322;2023-07-29T05:14:47;19.50;75.70
820;DHT22;392;48.838;2.322;2023-07-29T05:17:14;19.60;74.70
820;DHT22;392;48.838;2.322;2023-07-29T05:19:42;19.70;74.40
820;DHT22;392;48.838;2.322;2023-07-29T05:22:10;19.90;72.80
820;DHT22;392;48.838;2.322;2023-07-29T05:24:38;20.00;70.60
820;DHT22;392;48.838;2.322;2023-07-29T05:27:06;20.10;70.80
820;DHT22;392;48.838;2.322;2023-07-29T05:29:34;20.30;68.70
820;DHT22;392;48.838;2.322;2023-07-29T05:32:01;20.40;67.20
820;DHT22;392;48.838;2.322;2023-07-29T05:34:29;20.50;64.50
820;DHT22;392;48.838;2.322;2023-07-29T05:36:56;20.60;63.40
820;DHT22;392;48.838;2.322;2023-07-29T05:39:25;20.70;63.60
820;DHT22;392;48.838;2.322;2023-07-29T05:41:53;20.80;62.90
820;DHT22;392;48.838;2.322;2023-07-29T05:44:20;20.90;61.70
820;DHT22;392;48.838;2.322;2023-07-29T05:46:47;20.90;62.10
820;DHT22;392;48.838;2.322;2023-07-29T05:49:15;21.00;60.60
820;DHT22;392;48.838;2.322;2023-07-29T05:51:43;21.00;61.00
820;DHT22;392;48.838;2.322;2023-07-29T05:54:13;21.20;59.00
820;DHT22;392;48.838;2.322;2023-07-29T05:56:42;21.30;58.90
820;DHT22;392;48.838;2.322;2023-07-29T05:59:09;21.50;58.10
820;DHT22;392;48.838;2.322;2023-07-29T06:01:36;21.80;54.60
820;DHT22;392;48.838;2.322;2023-07-29T06:04:04;21.90;54.40
820;DHT22;392;48.838;2.322;2023-07-29T06:06:31;22.00;52.90
820;DHT22;392;48.838;2.322;2023-07-29T06:08:58;22.20;52.70
820;DHT22;392;48.838;2.322;2023-07-29T06:11:25;22.40;49.50
820;DHT22;392;48.838;2.322;2023-07-29T06:13:54;22.60;48.90
820;DHT22;392;48.838;2.322;2023-07-29T06:16:21;22.70;47.80
820;DHT22;392;48.838;2.322;2023-07-29T06:18:49;22.90;46.90
820;DHT22;392;48.838;2.322;2023-07-29T06:21:18;23.10;45.20
820;DHT22;392;48.838;2.322;2023-07-29T06:23:46;23.20;44.80
820;DHT22;392;48.838;2.322;2023-07-29T06:26:14;23.30;42.50
820;DHT22;392;48.838;2.322;2023-07-29T06:28:41;23.30;42.70
820;DHT22;392;48.838;2.322;2023-07-29T06:31:11;23.00;44.30
820;DHT22;392;48.838;2.322;2023-07-29T06:33:41;22.70;45.40
820;DHT22;392;48.838;2.322;2023-07-29T06:36:08;22.70;45.70
820;DHT22;392;48.838;2.322;2023-07-29T06:38:35;22.60;45.20
820;DHT22;392;48.838;2.322;2023-07-29T06:41:04;22.50;46.70
820;DHT22;392;48.838;2.322;2023-07-29T06:43:31;22.20;48.10
820;DHT22;392;48.838;2.322;2023-07-29T06:45:58;22.20;49.10
820;DHT22;392;48.838;2.322;2023-07-29T06:48:27;22.60;47.90
820;DHT22;392;48.838;2.322;2023-07-29T06:50:54;23.00;45.00
820;DHT22;392;48.838;2.322;2023-07-29T06:53:26;23.30;42.30
820;DHT22;392;48.838;2.322;2023-07-29T06:55:53;23.60;41.40
820;DHT22;392;48.838;2.322;2023-07-29T06:58:21;23.80;40.40
820;DHT22;392;48.838;2.322;2023-07-29T07:00:48;24.10;37.40
820;DHT22;392;48.838;2.322;2023-07-29T07:03:15;24.40;36.20
820;DHT22;392;48.838;2.322;2023-07-29T07:05:44;24.80;35.10
820;DHT22;392;48.838;2.322;2023-07-29T07:08:11;25.00;33.10
820;DHT22;392;48.838;2.322;2023-07-29T07:10:39;25.10;33.50
820;DHT22;392;48.838;2.322;2023-07-29T07:13:06;25.40;32.50
820;DHT22;392;48.838;2.322;2023-07-29T07:15:33;25.40;31.30
820;DHT22;392;48.838;2.322;2023-07-29T07:18:01;25.60;30.50
820;DHT22;392;48.838;2.322;2023-07-29T07:20:29;25.70;30.00
820;DHT22;392;48.838;2.322;2023-07-29T07:22:57;25.50;31.90
820;DHT22;392;48.838;2.322;2023-07-29T07:25:24;25.40;30.40
820;DHT22;392;48.838;2.322;2023-07-29T07:27:52;25.20;32.20
820;DHT22;392;48.838;2.322;2023-07-29T07:30:19;25.30;32.00
820;DHT22;392;48.838;2.322;2023-07-29T07:32:46;25.40;30.70
820;DHT22;392;48.838;2.322;2023-07-29T07:35:14;25.50;31.20
820;DHT22;392;48.838;2.322;2023-07-29T07:37:41;26.00;29.60
820;DHT22;392;48.838;2.322;2023-07-29T07:40:10;25.90;28.90
820;DHT22;392;48.838;2.322;2023-07-29T07:42:38;25.40;30.10
820;DHT22;392;48.838;2.322;2023-07-29T07:45:05;25.00;32.20
820;DHT22;392;48.838;2.322;2023-07-29T07:47:33;24.90;32.10
820;DHT22;392;48.838;2.322;2023-07-29T07:50:00;24.90;32.10
820;DHT22;392;48.838;2.322;2023-07-29T07:52:28;24.50;33.10
820;DHT22;392;48.838;2.322;2023-07-29T07:54:55;24.20;34.60
820;DHT22;392;48.838;2.322;2023-07-29T07:57:24;24.00;35.70
820;DHT22;392;48.838;2.322;2023-07-29T07:59:51;23.60;36.40
820;DHT22;392;48.838;2.322;2023-07-29T08:02:21;23.40;39.40
820;DHT22;392;48.838;2.322;2023-07-29T08:04:49;23.30;39.90
820;DHT22;392;48.838;2.322;2023-07-29T08:07:16;23.20;41.10
820;DHT22;392;48.838;2.322;2023-07-29T08:09:43;23.30;40.70
820;DHT22;392;48.838;2.322;2023-07-29T08:12:11;23.40;39.60
820;DHT22;392;48.838;2.322;2023-07-29T08:14:40;23.40;40.30
820;DHT22;392;48.838;2.322;2023-07-29T08:17:07;23.70;40.10
820;DHT22;392;48.838;2.322;2023-07-29T08:19:34;24.40;35.70
820;DHT22;392;48.838;2.322;2023-07-29T08:22:03;24.80;33.60
820;DHT22;392;48.838;2.322;2023-07-29T08:24:31;24.90;32.50
820;DHT22;392;48.838;2.322;2023-07-29T08:26:59;25.40;31.90
820;DHT22;392;48.838;2.322;2023-07-29T08:29:27;25.30;31.20
820;DHT22;392;48.838;2.322;2023-07-29T08:31:55;24.90;32.30
820;DHT22;392;48.838;2.322;2023-07-29T08:34:22;24.50;34.00
820;DHT22;392;48.838;2.322;2023-07-29T08:36:50;24.30;35.70
820;DHT22;392;48.838;2.322;2023-07-29T08:39:17;24.10;35.90
820;DHT22;392;48.838;2.322;2023-07-29T08:41:49;24.00;37.40
820;DHT22;392;48.838;2.322;2023-07-29T08:44:22;24.10;36.70
820;DHT22;392;48.838;2.322;2023-07-29T08:46:51;24.00;36.00
820;DHT22;392;48.838;2.322;2023-07-29T08:49:21;23.90;37.40
820;DHT22;392;48.838;2.322;2023-07-29T08:51:50;23.80;38.20
820;DHT22;392;48.838;2.322;2023-07-29T08:54:21;24.10;37.40
820;DHT22;392;48.838;2.322;2023-07-29T08:56:48;25.00;35.00
820;DHT22;392;48.838;2.322;2023-07-29T08:59:16;25.90;30.10
820;DHT22;392;48.838;2.322;2023-07-29T09:01:43;26.70;28.70
820;DHT22;392;48.838;2.322;2023-07-29T09:04:11;27.20;25.60
820;DHT22;392;48.838;2.322;2023-07-29T09:06:41;26.90;25.20
820;DHT22;392;48.838;2.322;2023-07-29T09:09:10;26.10;27.50
820;DHT22;392;48.838;2.322;2023-07-29T09:11:37;25.60;29.80
820;DHT22;392;48.838;2.322;2023-07-29T09:14:04;25.70;29.70
820;DHT22;392;48.838;2.322;2023-07-29T09:16:32;26.10;28.90
820;DHT22;392;48.838;2.322;2023-07-29T09:19:01;27.80;24.50
820;DHT22;392;48.838;2.322;2023-07-29T09:21:29;28.40;22.70
820;DHT22;392;48.838;2.322;2023-07-29T09:24:02;29.10;21.40
820;DHT22;392;48.838;2.322;2023-07-29T09:26:30;29.60;20.60
820;DHT22;392;48.838;2.322;2023-07-29T09:28:59;29.60;19.70
820;DHT22;392;48.838;2.322;2023-07-29T09:31:28;29.40;19.90
820;DHT22;392;48.838;2.322;2023-07-29T09:33:57;29.10;20.50
820;DHT22;392;48.838;2.322;2023-07-29T09:36:25;28.40;21.70
820;DHT22;392;48.838;2.322;2023-07-29T09:38:53;27.70;23.00
820;DHT22;392;48.838;2.322;2023-07-29T09:41:24;27.20;24.30
820;DHT22;392;48.838;2.322;2023-07-29T09:43:59;26.60;25.60
820;DHT22;392;48.838;2.322;2023-07-29T09:46:33;26.30;26.50
820;DHT22;392;48.838;2.322;2023-07-29T09:49:02;26.30;26.40
820;DHT22;392;48.838;2.322;2023-07-29T09:51:29;26.10;27.20
820;DHT22;392;48.838;2.322;2023-07-29T09:53:57;26.40;26.40
820;DHT22;392;48.838;2.322;2023-07-29T09:56:27;26.50;26.50
820;DHT22;392;48.838;2.322;2023-07-29T09:58:56;26.50;26.60
820;DHT22;392;48.838;2.322;2023-07-29T10:01:24;26.70;25.50
820;DHT22;392;48.838;2.322;2023-07-29T10:03:51;26.50;25.70
820;DHT22;392;48.838;2.322;2023-07-29T10:06:22;26.00;27.10
820;DHT22;392;48.838;2.322;2023-07-29T10:08:50;25.60;28.10
820;DHT22;392;48.838;2.322;2023-07-29T10:11:21;25.10;29.70
820;DHT22;392;48.838;2.322;2023-07-29T10:13:51;25.20;30.70
820;DHT22;392;48.838;2.322;2023-07-29T10:16:19;25.80;29.30
820;DHT22;392;48.838;2.322;2023-07-29T10:18:46;26.60;27.60
820;DHT22;392;48.838;2.322;2023-07-29T10:21:14;27.50;25.30
820;DHT22;392;48.838;2.322;2023-07-29T10:23:47;28.30;23.10
820;DHT22;392;48.838;2.322;2023-07-29T10:26:20;28.40;22.40
820;DHT22;392;48.838;2.322;2023-07-29T10:28:47;28.20;22.90
820;DHT22;392;48.838;2.322;2023-07-29T10:31:16;27.70;23.60
820;DHT22;392;48.838;2.322;2023-07-29T10:33:44;27.40;24.50
820;DHT22;392;48.838;2.322;2023-07-29T10:36:12;27.30;24.70
820;DHT22;392;48.838;2.322;2023-07-29T10:38:40;27.20;24.80
820;DHT22;392;48.838;2.322;2023-07-29T10:41:08;27.30;25.10
820;DHT22;392;48.838;2.322;2023-07-29T10:43:36;27.80;24.70
820;DHT22;392;48.838;2.322;2023-07-29T10:46:16;28.10;23.60
820;DHT22;392;48.838;2.322;2023-07-29T10:48:53;28.20;23.50
820;DHT22;392;48.838;2.322;2023-07-29T10:51:23;28.10;23.20
820;DHT22;392;48.838;2.322;2023-07-29T10:53:52;27.60;24.20
820;DHT22;392;48.838;2.322;2023-07-29T10:56:28;26.90;26.10
820;DHT22;392;48.838;2.322;2023-07-29T10:58:58;26.50;27.80
820;DHT22;392;48.838;2.322;2023-07-29T11:01:30;26.20;28.00
820;DHT22;392;48.838;2.322;2023-07-29T11:04:24;26.20;28.30
820;DHT22;392;48.838;2.322;2023-07-29T11:07:19;26.50;28.00
820;DHT22;392;48.838;2.322;2023-07-29T11:10:00;27.00;26.60
820;DHT22;392;48.838;2.322;2023-07-29T11:12:42;26.90;26.20
820;DHT22;392;48.838;2.322;2023-07-29T11:15:32;26.50;27.30
820;DHT22;392;48.838;2.322;2023-07-29T11:18:01;26.20;28.70
820;DHT22;392;48.838;2.322;2023-07-29T11:20:30;26.70;28.60
820;DHT22;392;48.838;2.322;2023-07-29T11:23:00;27.30;26.20
820;DHT22;392;48.838;2.322;2023-07-29T11:25:29;27.30;26.40
820;DHT22;392;48.838;2.322;2023-07-29T11:27:59;27.20;26.70
820;DHT22;392;48.838;2.322;2023-07-29T11:30:27;27.10;26.50
820;DHT22;392;48.838;2.322;2023-07-29T11:32:56;26.60;27.20
820;DHT22;392;48.838;2.322;2023-07-29T11:35:26;26.10;28.80
820;DHT22;392;48.838;2.322;2023-07-29T11:37:54;26.00;30.30
820;DHT22;392;48.838;2.322;2023-07-29T11:40:23;26.10;28.70
820;DHT22;392;48.838;2.322;2023-07-29T11:42:52;26.20;29.70
820;DHT22;392;48.838;2.322;2023-07-29T11:45:20;26.40;28.80
820;DHT22;392;48.838;2.322;2023-07-29T11:47:48;27.00;28.20
820;DHT22;392;48.838;2.322;2023-07-29T11:50:16;28.00;25.10
820;DHT22;392;48.838;2.322;2023-07-29T11:52:46;28.70;23.50
820;DHT22;392;48.838;2.322;2023-07-29T11:55:15;28.90;22.90
820;DHT22;392;48.838;2.322;2023-07-29T11:57:43;28.70;22.40
820;DHT22;392;48.838;2.322;2023-07-29T12:00:11;28.10;23.20
820;DHT22;392;48.838;2.322;2023-07-29T12:02:43;27.40;25.40
820;DHT22;392;48.838;2.322;2023-07-29T12:05:12;27.20;26.40
820;DHT22;392;48.838;2.322;2023-07-29T12:07:42;27.10;26.30
820;DHT22;392;48.838;2.322;2023-07-29T12:10:11;26.90;27.90
820;DHT22;392;48.838;2.322;2023-07-29T12:12:44;26.40;29.90
820;DHT22;392;48.838;2.322;2023-07-29T12:15:12;25.90;32.20
820;DHT22;392;48.838;2.322;2023-07-29T12:17:40;25.50;34.90
820;DHT22;392;48.838;2.322;2023-07-29T12:20:10;25.10;37.60
820;DHT22;392;48.838;2.322;2023-07-29T12:22:37;24.80;41.00
820;DHT22;392;48.838;2.322;2023-07-29T12:25:06;25.00;43.90
820;DHT22;392;48.838;2.322;2023-07-29T12:27:35;25.80;41.10
820;DHT22;392;48.838;2.322;2023-07-29T12:30:03;26.70;35.90
820;DHT22;392;48.838;2.322;2023-07-29T12:32:32;27.40;33.80
820;DHT22;392;48.838;2.322;2023-07-29T12:34:59;28.10;28.40
820;DHT22;392;48.838;2.322;2023-07-29T12:37:31;28.40;27.10
820;DHT22;392;48.838;2.322;2023-07-29T12:39:59;28.40;27.20
820;DHT22;392;48.838;2.322;2023-07-29T12:42:26;28.70;26.70
820;DHT22;392;48.838;2.322;2023-07-29T12:44:55;29.10;25.50
820;DHT22;392;48.838;2.322;2023-07-29T12:47:22;29.10;25.10
820;DHT22;392;48.838;2.322;2023-07-29T12:49:49;29.40;24.90
820;DHT22;392;48.838;2.322;2023-07-29T12:52:16;30.00;24.10
820;DHT22;392;48.838;2.322;2023-07-29T12:54:43;30.60;20.10
820;DHT22;392;48.838;2.322;2023-07-29T12:57:11;30.70;21.00
820;DHT22;392;48.838;2.322;2023-07-29T12:59:38;30.30;21.40
820;DHT22;392;48.838;2.322;2023-07-29T13:02:07;29.80;21.20
820;DHT22;392;48.838;2.322;2023-07-29T13:04:34;29.30;22.40
820;DHT22;392;48.838;2.322;2023-07-29T13:07:01;29.20;22.60
820;DHT22;392;48.838;2.322;2023-07-29T13:09:29;29.20;22.10
820;DHT22;392;48.838;2.322;2023-07-29T13:11:56;29.40;22.10
820;DHT22;392;48.838;2.322;2023-07-29T13:14:23;29.10;22.40
820;DHT22;392;48.838;2.322;2023-07-29T13:16:52;28.90;23.50
820;DHT22;392;48.838;2.322;2023-07-29T13:19:20;29.30;23.10
820;DHT22;392;48.838;2.322;2023-07-29T13:21:47;29.90;20.20
820;DHT22;392;48.838;2.322;2023-07-29T13:24:15;29.90;20.70
820;DHT22;392;48.838;2.322;2023-07-29T13:26:42;29.60;21.10
820;DHT22;392;48.838;2.322;2023-07-29T13:29:09;29.30;21.30
820;DHT22;392;48.838;2.322;2023-07-29T13:31:36;28.90;22.00
820;DHT22;392;48.838;2.322;2023-07-29T13:34:03;28.70;21.90
820;DHT22;392;48.838;2.322;2023-07-29T13:36:32;28.80;21.20
820;DHT22;392;48.838;2.322;2023-07-29T13:38:59;28.60;21.20
820;DHT22;392;48.838;2.322;2023-07-29T13:41:26;28.50;21.70
820;DHT22;392;48.838;2.322;2023-07-29T13:43:53;28.60;21.70
820;DHT22;392;48.838;2.322;2023-07-29T13:46:21;28.60;21.90
820;DHT22;392;48.838;2.322;2023-07-29T13:48:48;28.30;21.90
820;DHT22;392;48.838;2.322;2023-07-29T13:51:15;27.90;22.50
820;DHT22;392;48.838;2.322;2023-07-29T13:53:44;27.50;23.50
820;DHT22;392;48.838;2.322;2023-07-29T13:56:11;27.20;24.30
820;DHT22;392;48.838;2.322;2023-07-29T13:58:39;27.10;24.60
820;DHT22;392;48.838;2.322;2023-07-29T14:01:07;27.00;24.50
820;DHT22;392;48.838;2.322;2023-07-29T14:03:34;27.10;24.60
820;DHT22;392;48.838;2.322;2023-07-29T14:06:01;27.30;24.50
820;DHT22;392;48.838;2.322;2023-07-29T14:08:29;27.40;23.70
820;DHT22;392;48.838;2.322;2023-07-29T14:10:57;27.40;23.90
820;DHT22;392;48.838;2.322;2023-07-29T14:13:25;27.40;23.90
820;DHT22;392;48.838;2.322;2023-07-29T14:15:52;27.20;24.30
820;DHT22;392;48.838;2.322;2023-07-29T14:18:19;27.20;24.60
820;DHT22;392;48.838;2.322;2023-07-29T14:20:46;27.00;25.40
820;DHT22;392;48.838;2.322;2023-07-29T14:23:15;26.90;26.10
820;DHT22;392;48.838;2.322;2023-07-29T14:25:42;26.90;25.80
820;DHT22;392;48.838;2.322;2023-07-29T14:28:12;26.80;26.10
820;DHT22;392;48.838;2.322;2023-07-29T14:30:40;26.70;26.40
820;DHT22;392;48.838;2.322;2023-07-29T14:33:07;26.70;26.90
820;DHT22;392;48.838;2.322;2023-07-29T14:38:03;26.60;26.50
820;DHT22;392;48.838;2.322;2023-07-29T14:40:30;26.60;26.80
820;DHT22;392;48.838;2.322;2023-07-29T14:42:58;26.60;26.80
820;DHT22;392;48.838;2.322;2023-07-29T14:45:26;26.50;26.80
820;DHT22;392;48.838;2.322;2023-07-29T14:47:54;26.60;27.10
820;DHT22;392;48.838;2.322;2023-07-29T14:50:21;26.70;26.60
820;DHT22;392;48.838;2.322;2023-07-29T14:52:48;26.70;26.70
820;DHT22;392;48.838;2.322;2023-07-29T14:55:16;26.70;26.90
820;DHT22;392;48.838;2.322;2023-07-29T14:57:43;26.70;26.50
820;DHT22;392;48.838;2.322;2023-07-29T15:00:11;26.70;25.40
820;DHT22;392;48.838;2.322;2023-07-29T15:02:40;26.70;25.80
820;DHT22;392;48.838;2.322;2023-07-29T15:05:08;26.70;25.30
820;DHT22;392;48.838;2.322;2023-07-29T15:07:35;26.50;26.10
820;DHT22;392;48.838;2.322;2023-07-29T15:10:03;26.30;26.30
820;DHT22;392;48.838;2.322;2023-07-29T15:12:31;26.20;25.80
820;DHT22;392;48.838;2.322;2023-07-29T15:14:58;26.10;27.10
820;DHT22;392;48.838;2.322;2023-07-29T15:17:25;26.10;32.60
820;DHT22;392;48.838;2.322;2023-07-29T15:19:54;25.90;33.50
820;DHT22;392;48.838;2.322;2023-07-29T15:22:21;25.80;37.00
820;DHT22;392;48.838;2.322;2023-07-29T15:24:48;25.70;36.60
820;DHT22;392;48.838;2.322;2023-07-29T15:27:15;25.50;38.60
820;DHT22;392;48.838;2.322;2023-07-29T15:29:44;25.40;39.20
820;DHT22;392;48.838;2.322;2023-07-29T15:32:11;25.50;35.00
820;DHT22;392;48.838;2.322;2023-07-29T15:34:38;25.70;34.40
820;DHT22;392;48.838;2.322;2023-07-29T15:37:07;25.80;35.50
820;DHT22;392;48.838;2.322;2023-07-29T15:42:03;25.70;36.00
820;DHT22;392;48.838;2.322;2023-07-29T15:44:30;25.70;36.40
820;DHT22;392;48.838;2.322;2023-07-29T15:46:58;25.60;35.90
820;DHT22;392;48.838;2.322;2023-07-29T15:49:25;25.60;36.50
820;DHT22;392;48.838;2.322;2023-07-29T15:51:52;25.60;37.10
820;DHT22;392;48.838;2.322;2023-07-29T15:54:21;25.50;37.20
820;DHT22;392;48.838;2.322;2023-07-29T15:56:48;25.60;40.60
820;DHT22;392;48.838;2.322;2023-07-29T15:59:15;25.50;40.10
820;DHT22;392;48.838;2.322;2023-07-29T16:01:42;25.40;40.70
820;DHT22;392;48.838;2.322;2023-07-29T16:04:10;25.20;42.90
820;DHT22;392;48.838;2.322;2023-07-29T16:06:37;25.10;45.00
820;DHT22;392;48.838;2.322;2023-07-29T16:09:04;25.00;45.80
820;DHT22;392;48.838;2.322;2023-07-29T16:11:34;25.00;46.10
820;DHT22;392;48.838;2.322;2023-07-29T16:14:01;25.00;45.50
820;DHT22;392;48.838;2.322;2023-07-29T16:16:28;24.90;45.00
820;DHT22;392;48.838;2.322;2023-07-29T16:18:56;24.90;44.80
820;DHT22;392;48.838;2.322;2023-07-29T16:21:23;24.80;43.10
820;DHT22;392;48.838;2.322;2023-07-29T16:23:51;24.80;43.30
820;DHT22;392;48.838;2.322;2023-07-29T16:26:19;24.80;43.10
820;DHT22;392;48.838;2.322;2023-07-29T16:28:47;24.80;44.10
820;DHT22;392;48.838;2.322;2023-07-29T16:31:14;24.80;44.10
820;DHT22;392;48.838;2.322;2023-07-29T16:33:44;24.70;44.70
820;DHT22;392;48.838;2.322;2023-07-29T16:38:39;24.50;45.30
820;DHT22;392;48.838;2.322;2023-07-29T16:41:06;24.40;47.30
820;DHT22;392;48.838;2.322;2023-07-29T16:43:34;24.30;50.80
820;DHT22;392;48.838;2.322;2023-07-29T16:46:03;24.20;50.10
820;DHT22;392;48.838;2.322;2023-07-29T16:48:30;24.00;48.60
820;DHT22;392;48.838;2.322;2023-07-29T16:50:57;24.00;47.40